Time;durP1;ratioP1;P1;durP2;ratioP2;P2;SDS_P1;SDS_P2;PMS_P1;PMS_P2;Temp;Humidity;BMP_temperature;BMP_pressure;BME280_temperature;BME280_humidity;BME280_pressure;Samples;Min_cycle;Max_cycle;Signal;HPM_P1;HPM_P2
2021/08/11 00:00:27;;;;;;;3.35;1.00;;;;;;;;;;4997195;28;20029;-62
2021/08/11 00:02:53;;;;;;;5.88;2.05;;;;;;;;;;5000023;28;20026;-62
2021/08/11 00:05:18;;;;;;;2.70;1.50;;;;;;;;;;4997000;28;20065;-62
2021/08/11 00:07:44;;;;;;;1.90;1.08;;;;;;;;;;5003900;28;20037;-62
2021/08/11 00:10:10;;;;;;;1.98;1.20;;;;;;;;;;5003646;28;20112;-62
2021/08/11 00:12:36;;;;;;;6.28;1.42;;;;;;;;;;4998122;28;20105;-62
2021/08/11 00:15:02;;;;;;;2.30;1.10;;;;;;;;;;5001091;28;20045;-61
2021/08/11 00:17:27;;;;;;;2.15;1.23;;;;;;;;;;4999554;28;20053;-61
2021/08/11 00:19:53;;;;;;;3.38;1.02;;;;;;;;;;4992019;28;20420;-61
2021/08/11 00:22:19;;;;;;;1.67;1.10;;;;;;;;;;4992303;28;20041;-61
2021/08/11 00:24:44;;;;;;;2.30;1.13;;;;;;;;;;4994307;28;20413;-62
2021/08/11 00:27:10;;;;;;;3.17;1.50;;;;;;;;;;5000430;28;20030;-62
2021/08/11 00:29:35;;;;;;;3.65;1.20;;;;;;;;;;5000459;28;20034;-61
2021/08/11 00:32:01;;;;;;;3.65;1.17;;;;;;;;;;5004894;28;20120;-61
2021/08/11 00:34:29;;;;;;;2.63;1.30;;;;;;;;;;5000973;28;20033;-61
2021/08/11 00:36:55;;;;;;;2.28;1.27;;;;;;;;;;5004373;28;20037;-61
2021/08/11 00:39:21;;;;;;;4.00;1.20;;;;;;;;;;4998161;28;20448;-62
2021/08/11 00:41:46;;;;;;;5.03;1.58;;;;;;;;;;4997528;28;20043;-62
2021/08/11 00:44:12;;;;;;;3.90;1.20;;;;;;;;;;5000145;28;20033;-62
2021/08/11 00:46:42;;;;;;;4.80;1.30;;;;;;;;;;4997367;28;20034;-61
2021/08/11 00:49:15;;;;;;;2.20;1.30;;;;;;;;;;4995119;28;20034;-61
2021/08/11 00:51:42;;;;;;;4.57;1.50;;;;;;;;;;4996262;28;20427;-61
2021/08/11 00:54:09;;;;;;;2.58;1.40;;;;;;;;;;4996714;28;20563;-62
2021/08/11 00:56:37;;;;;;;3.38;1.33;;;;;;;;;;4993092;28;20076;-62
2021/08/11 00:59:04;;;;;;;4.25;1.58;;;;;;;;;;4999903;28;20030;-63
2021/08/11 01:01:32;;;;;;;5.88;1.60;;;;;;;;;;4994863;28;20140;-62
2021/08/11 01:03:59;;;;;;;3.40;1.30;;;;;;;;;;4997806;28;20041;-62
2021/08/11 01:06:25;;;;;;;6.78;1.48;;;;;;;;;;5004592;28;20021;-62
2021/08/11 01:08:54;;;;;;;7.45;1.90;;;;;;;;;;5004421;28;20537;-61
2021/08/11 01:11:24;;;;;;;7.05;2.00;;;;;;;;;;4996053;28;20030;-62
2021/08/11 01:13:49;;;;;;;3.75;1.75;;;;;;;;;;5000393;28;20032;-61
2021/08/11 01:16:15;;;;;;;6.65;2.20;;;;;;;;;;4997677;28;20034;-62
2021/08/11 01:18:40;;;;;;;6.07;2.45;;;;;;;;;;4999293;28;20033;-61
2021/08/11 01:21:23;;;;;;;8.55;2.92;;;;;;;;;;4997261;28;20038;-62
2021/08/11 01:24:00;;;;;;;8.23;2.30;;;;;;;;;;4997106;28;20034;-62
2021/08/11 01:27:07;;;;;;;13.82;2.97;;;;;;;;;;4998243;28;20034;-62
2021/08/11 01:29:59;;;;;;;9.82;2.53;;;;;;;;;;5000646;28;20033;-62
2021/08/11 01:32:43;;;;;;;9.93;3.85;;;;;;;;;;4996330;28;20025;-62
2021/08/11 01:35:12;;;;;;;9.73;3.80;;;;;;;;;;4998351;28;20033;-62
2021/08/11 01:37:41;;;;;;;10.25;3.88;;;;;;;;;;4994177;28;20397;-62
2021/08/11 01:40:09;;;;;;;12.82;3.42;;;;;;;;;;4994578;28;20562;-62
2021/08/11 01:42:45;;;;;;;13.70;4.47;;;;;;;;;;4995727;28;20042;-62
2021/08/11 01:45:13;;;;;;;11.98;4.47;;;;;;;;;;5000148;28;20133;-62
2021/08/11 01:48:01;;;;;;;13.88;4.22;;;;;;;;;;4996885;28;20030;-62
2021/08/11 01:50:30;;;;;;;15.90;4.00;;;;;;;;;;4993849;28;22642;-62
2021/08/11 01:52:57;;;;;;;11.10;4.38;;;;;;;;;;4996872;28;20037;-62
2021/08/11 01:55:23;;;;;;;11.70;4.13;;;;;;;;;;4997265;28;20061;-62
2021/08/11 01:57:53;;;;;;;15.65;4.95;;;;;;;;;;4998134;28;20563;-62
2021/08/11 02:00:21;;;;;;;15.23;4.18;;;;;;;;;;4997129;28;20045;-62
2021/08/11 02:02:47;;;;;;;12.05;4.47;;;;;;;;;;5001460;28;20368;-62
2021/08/11 02:05:14;;;;;;;10.68;4.22;;;;;;;;;;4998701;28;20472;-62
2021/08/11 02:07:40;;;;;;;16.52;4.05;;;;;;;;;;5000609;28;20069;-62
2021/08/11 02:10:08;;;;;;;20.00;4.65;;;;;;;;;;5002969;28;20030;-62
2021/08/11 02:12:34;;;;;;;16.02;5.07;;;;;;;;;;4999496;28;20408;-62
2021/08/11 02:15:00;;;;;;;16.23;4.50;;;;;;;;;;5000633;28;20026;-62
2021/08/11 02:17:25;;;;;;;16.63;4.40;;;;;;;;;;5002348;28;20046;-61
2021/08/11 02:19:51;;;;;;;17.88;4.78;;;;;;;;;;4999785;28;20493;-62
2021/08/11 02:22:17;;;;;;;14.77;4.50;;;;;;;;;;5001411;28;20064;-62
2021/08/11 02:24:43;;;;;;;10.88;3.78;;;;;;;;;;5000841;28;20499;-62
2021/08/11 02:27:17;;;;;;;16.98;4.90;;;;;;;;;;5001841;28;20116;-62
2021/08/11 02:29:58;;;;;;;11.32;3.15;;;;;;;;;;5002971;28;20026;-62
2021/08/11 02:32:29;;;;;;;19.33;4.22;;;;;;;;;;5000054;28;20038;-62
2021/08/11 02:35:29;;;;;;;15.38;4.35;;;;;;;;;;5002539;28;20030;-61
2021/08/11 02:38:06;;;;;;;11.15;3.67;;;;;;;;;;5010512;28;20053;-61
2021/08/11 02:40:39;;;;;;;10.32;3.95;;;;;;;;;;4999768;28;20424;-61
2021/08/11 02:43:43;;;;;;;15.85;4.82;;;;;;;;;;4996187;28;20061;-61
2021/08/11 02:46:17;;;;;;;18.17;4.80;;;;;;;;;;5005394;28;20041;-61
2021/08/11 02:48:52;;;;;;;10.48;4.80;;;;;;;;;;5001800;28;20028;-62
2021/08/11 02:51:18;;;;;;;12.55;4.07;;;;;;;;;;5000167;28;20072;-62
2021/08/11 02:53:44;;;;;;;15.57;4.28;;;;;;;;;;5004549;28;20488;-62
2021/08/11 02:56:14;;;;;;;12.30;4.15;;;;;;;;;;5002101;28;20041;-62
2021/08/11 02:58:40;;;;;;;11.15;3.67;;;;;;;;;;5003253;28;20022;-62
2021/08/11 03:01:06;;;;;;;9.70;3.72;;;;;;;;;;4999510;28;20045;-60
2021/08/11 03:03:32;;;;;;;13.05;4.28;;;;;;;;;;5001783;28;20436;-61
2021/08/11 03:05:58;;;;;;;15.30;3.58;;;;;;;;;;5000005;28;20069;-62
2021/08/11 03:08:24;;;;;;;10.43;3.50;;;;;;;;;;5001405;28;20146;-61
2021/08/11 03:10:50;;;;;;;14.30;3.47;;;;;;;;;;5001088;28;20057;-61
2021/08/11 03:13:17;;;;;;;11.77;4.03;;;;;;;;;;5002142;28;20061;-61
2021/08/11 03:15:44;;;;;;;11.75;4.13;;;;;;;;;;5002077;28;20040;-61
2021/08/11 03:18:10;;;;;;;12.88;4.10;;;;;;;;;;4996983;28;20053;-61
2021/08/11 03:20:39;;;;;;;12.02;3.65;;;;;;;;;;4997473;28;20049;-61
2021/08/11 03:23:05;;;;;;;8.38;3.80;;;;;;;;;;5002160;28;20037;-61
2021/08/11 03:25:30;;;;;;;12.93;4.60;;;;;;;;;;5002885;28;20404;-61
2021/08/11 03:27:56;;;;;;;19.40;4.35;;;;;;;;;;5002227;28;20502;-61
2021/08/11 03:30:21;;;;;;;17.23;4.10;;;;;;;;;;4994804;28;20034;-61
2021/08/11 03:32:47;;;;;;;11.50;4.07;;;;;;;;;;5002899;28;20503;-61
2021/08/11 03:35:12;;;;;;;16.95;4.20;;;;;;;;;;5003541;28;20468;-62
2021/08/11 03:37:38;;;;;;;11.70;3.70;;;;;;;;;;5002541;28;20058;-62
2021/08/11 03:40:04;;;;;;;12.27;3.95;;;;;;;;;;4998427;28;20033;-61
2021/08/11 03:42:29;;;;;;;8.35;3.63;;;;;;;;;;4997630;28;20045;-61
2021/08/11 03:44:55;;;;;;;10.15;4.35;;;;;;;;;;4996149;28;20034;-62
2021/08/11 03:47:20;;;;;;;10.20;3.60;;;;;;;;;;5002133;28;20523;-61
2021/08/11 03:49:46;;;;;;;11.07;3.40;;;;;;;;;;4995466;28;20030;-61
2021/08/11 03:52:12;;;;;;;5.72;3.22;;;;;;;;;;5001936;28;20037;-61
2021/08/11 03:54:37;;;;;;;13.55;3.63;;;;;;;;;;4996186;28;20038;-61
2021/08/11 03:57:03;;;;;;;12.35;4.43;;;;;;;;;;5000900;28;20025;-62
2021/08/11 03:59:29;;;;;;;10.32;3.90;;;;;;;;;;5003416;28;20551;-61
2021/08/11 04:01:54;;;;;;;13.60;3.88;;;;;;;;;;4998407;28;20112;-61
2021/08/11 04:04:20;;;;;;;14.93;4.15;;;;;;;;;;4997534;28;20038;-61
2021/08/11 04:06:46;;;;;;;13.27;4.18;;;;;;;;;;4998057;28;20500;-61
2021/08/11 04:09:11;;;;;;;12.07;4.13;;;;;;;;;;4995086;28;20464;-61
2021/08/11 04:11:37;;;;;;;16.35;4.57;;;;;;;;;;5002450;28;20045;-61
2021/08/11 04:14:02;;;;;;;18.48;4.25;;;;;;;;;;4995410;28;20117;-61
2021/08/11 04:16:28;;;;;;;15.40;3.72;;;;;;;;;;4995119;28;20138;-60
2021/08/11 04:18:53;;;;;;;10.60;3.72;;;;;;;;;;5003563;28;20034;-61
2021/08/11 04:21:19;;;;;;;12.38;3.92;;;;;;;;;;5002545;28;20023;-61
2021/08/11 04:23:44;;;;;;;18.42;3.83;;;;;;;;;;4997188;28;20512;-62
2021/08/11 04:26:10;;;;;;;10.55;4.03;;;;;;;;;;5001815;28;20045;-61
2021/08/11 04:28:35;;;;;;;13.73;4.18;;;;;;;;;;4999666;28;20052;-63
2021/08/11 04:31:00;;;;;;;12.32;3.67;;;;;;;;;;5000224;28;20125;-62
2021/08/11 04:33:26;;;;;;;17.38;4.65;;;;;;;;;;4999555;28;20061;-62
2021/08/11 04:35:52;;;;;;;11.60;4.18;;;;;;;;;;4997917;28;20030;-62
2021/08/11 04:38:18;;;;;;;11.20;4.45;;;;;;;;;;4996098;28;20062;-62
2021/08/11 04:40:43;;;;;;;15.70;3.83;;;;;;;;;;5001039;28;20025;-63
2021/08/11 04:43:09;;;;;;;10.77;3.88;;;;;;;;;;5000021;28;20083;-62
2021/08/11 04:45:39;;;;;;;11.63;4.00;;;;;;;;;;4994184;28;20026;-62
2021/08/11 04:48:05;;;;;;;15.05;4.15;;;;;;;;;;4992354;28;20026;-63
2021/08/11 04:50:30;;;;;;;12.68;3.45;;;;;;;;;;4994786;28;20056;-62
2021/08/11 04:52:56;;;;;;;11.70;3.88;;;;;;;;;;5001678;28;20077;-62
2021/08/11 04:55:21;;;;;;;12.57;3.72;;;;;;;;;;5000954;28;20444;-62
2021/08/11 04:57:47;;;;;;;8.43;3.50;;;;;;;;;;4995454;28;20120;-62
2021/08/11 05:00:13;;;;;;;11.10;3.33;;;;;;;;;;4998427;28;20484;-62
2021/08/11 05:02:38;;;;;;;10.45;3.25;;;;;;;;;;4993635;28;20050;-62
2021/08/11 05:05:06;;;;;;;11.27;3.38;;;;;;;;;;4994347;28;20030;-62
2021/08/11 05:07:32;;;;;;;8.45;3.40;;;;;;;;;;4995142;28;20933;-62
2021/08/11 05:09:57;;;;;;;8.18;2.72;;;;;;;;;;4999516;28;20066;-62
2021/08/11 05:12:24;;;;;;;9.95;3.15;;;;;;;;;;5000428;28;20042;-62
2021/08/11 05:14:51;;;;;;;7.90;3.08;;;;;;;;;;5001499;28;20092;-62
2021/08/11 05:17:21;;;;;;;11.68;3.60;;;;;;;;;;4991632;28;20048;-61
2021/08/11 05:19:47;;;;;;;8.00;2.58;;;;;;;;;;4995699;28;20428;-62
2021/08/11 05:22:14;;;;;;;6.28;2.88;;;;;;;;;;5001847;28;20029;-62
2021/08/11 05:24:39;;;;;;;11.00;3.55;;;;;;;;;;4991221;28;20048;-61
2021/08/11 05:27:05;;;;;;;9.40;2.67;;;;;;;;;;4994126;28;20042;-61
2021/08/11 05:29:31;;;;;;;8.38;2.40;;;;;;;;;;4997209;28;20088;-61
2021/08/11 05:31:57;;;;;;;10.45;2.35;;;;;;;;;;4993066;28;20123;-61
2021/08/11 05:34:22;;;;;;;6.78;2.00;;;;;;;;;;5000760;28;20470;-61
2021/08/11 05:36:48;;;;;;;5.78;2.67;;;;;;;;;;4998056;28;20030;-61
2021/08/11 05:39:13;;;;;;;8.05;2.70;;;;;;;;;;4999405;28;20041;-61
2021/08/11 05:41:39;;;;;;;7.30;2.20;;;;;;;;;;4998123;28;20052;-62
2021/08/11 05:44:07;;;;;;;6.25;2.10;;;;;;;;;;4995053;28;20029;-62
2021/08/11 05:46:32;;;;;;;6.07;2.45;;;;;;;;;;4990662;28;20041;-62
2021/08/11 05:48:58;;;;;;;6.18;2.13;;;;;;;;;;4990912;28;20029;-62
2021/08/11 05:51:23;;;;;;;7.68;2.17;;;;;;;;;;4999627;28;20029;-62
2021/08/11 05:53:49;;;;;;;7.28;2.20;;;;;;;;;;4995744;28;20104;-62
2021/08/11 05:56:14;;;;;;;9.65;2.45;;;;;;;;;;4997835;28;20046;-62
2021/08/11 05:58:40;;;;;;;5.70;2.25;;;;;;;;;;4996320;28;20385;-61
2021/08/11 06:01:05;;;;;;;11.32;1.92;;;;;;;;;;4996653;28;20515;-63
2021/08/11 06:03:31;;;;;;;7.60;2.17;;;;;;;;;;4998503;28;20666;-63
2021/08/11 06:05:56;;;;;;;7.97;2.50;;;;;;;;;;4999708;28;20042;-62
2021/08/11 06:08:22;;;;;;;6.55;2.22;;;;;;;;;;4998919;28;20057;-62
2021/08/11 06:10:47;;;;;;;10.95;2.33;;;;;;;;;;4999784;28;20041;-62
2021/08/11 06:13:13;;;;;;;8.38;2.33;;;;;;;;;;4998635;28;20574;-62
2021/08/11 06:15:38;;;;;;;5.22;2.40;;;;;;;;;;5001217;28;20058;-62
2021/08/11 06:18:04;;;;;;;7.65;2.53;;;;;;;;;;4997523;28;20674;-62
2021/08/11 06:20:29;;;;;;;12.65;2.15;;;;;;;;;;4997462;28;20108;-62
2021/08/11 06:22:55;;;;;;;9.77;2.28;;;;;;;;;;5000545;28;20041;-62
2021/08/11 06:25:20;;;;;;;7.90;1.98;;;;;;;;;;4998174;28;20037;-62
2021/08/11 06:27:46;;;;;;;8.35;2.13;;;;;;;;;;5000377;28;20441;-62
2021/08/11 06:30:13;;;;;;;9.82;2.42;;;;;;;;;;4995647;28;20033;-62
2021/08/11 06:32:39;;;;;;;9.40;2.20;;;;;;;;;;4997721;28;20062;-62
2021/08/11 06:35:05;;;;;;;11.07;2.88;;;;;;;;;;5000491;28;20034;-61
2021/08/11 06:37:31;;;;;;;8.85;2.67;;;;;;;;;;4997568;28;20280;-62
2021/08/11 06:39:57;;;;;;;8.35;2.05;;;;;;;;;;4999007;28;20640;-62
2021/08/11 06:42:22;;;;;;;6.53;2.15;;;;;;;;;;4995299;28;20759;-62
2021/08/11 06:44:47;;;;;;;8.05;2.30;;;;;;;;;;4996348;28;20036;-62
2021/08/11 06:47:13;;;;;;;12.98;2.08;;;;;;;;;;4980715;28;20448;-62
2021/08/11 06:49:38;;;;;;;6.95;2.05;;;;;;;;;;4992329;28;20371;-62
2021/08/11 06:52:04;;;;;;;8.40;2.17;;;;;;;;;;4997769;28;20037;-62
2021/08/11 06:54:29;;;;;;;7.45;2.17;;;;;;;;;;5004791;28;20046;-61
2021/08/11 06:56:55;;;;;;;9.48;3.00;;;;;;;;;;4998805;28;20476;-62
2021/08/11 06:59:20;;;;;;;7.68;2.08;;;;;;;;;;4999203;28;20026;-62
2021/08/11 07:01:46;;;;;;;6.30;1.90;;;;;;;;;;5001966;28;20034;-62
2021/08/11 07:04:11;;;;;;;3.80;1.52;;;;;;;;;;4996852;28;20053;-62
2021/08/11 07:06:40;;;;;;;3.00;1.52;;;;;;;;;;5002599;28;20113;-62
2021/08/11 07:09:07;;;;;;;6.47;1.60;;;;;;;;;;4996946;28;20030;-61
2021/08/11 07:11:33;;;;;;;4.05;1.42;;;;;;;;;;5001245;28;20034;-60
2021/08/11 07:13:58;;;;;;;4.97;1.42;;;;;;;;;;4998388;28;20038;-61
2021/08/11 07:16:24;;;;;;;4.93;2.13;;;;;;;;;;4999998;28;20060;-60
2021/08/11 07:18:49;;;;;;;4.18;1.30;;;;;;;;;;4998919;28;20556;-61
2021/08/11 07:21:15;;;;;;;8.38;1.75;;;;;;;;;;5004079;28;20057;-60
2021/08/11 07:23:40;;;;;;;9.63;1.75;;;;;;;;;;4982695;28;20504;-61
2021/08/11 07:26:08;;;;;;;8.00;1.63;;;;;;;;;;4999092;28;20532;-61
2021/08/11 07:28:34;;;;;;;4.15;1.38;;;;;;;;;;5001804;28;20042;-61
2021/08/11 07:30:59;;;;;;;4.30;1.20;;;;;;;;;;4997401;28;20030;-61
2021/08/11 07:33:25;;;;;;;4.72;1.42;;;;;;;;;;4996150;28;20026;-61
2021/08/11 07:35:50;;;;;;;5.35;2.00;;;;;;;;;;4994461;28;20405;-61
2021/08/11 07:38:17;;;;;;;5.57;1.55;;;;;;;;;;5001969;28;20065;-61
2021/08/11 07:40:43;;;;;;;6.60;1.90;;;;;;;;;;4999934;28;20034;-61
2021/08/11 07:43:09;;;;;;;5.18;1.63;;;;;;;;;;5000094;28;20037;-61
2021/08/11 07:45:35;;;;;;;8.20;2.67;;;;;;;;;;4993126;28;20534;-61
2021/08/11 07:48:01;;;;;;;6.93;1.60;;;;;;;;;;4998578;28;20092;-60
2021/08/11 07:50:29;;;;;;;2.80;1.60;;;;;;;;;;4996477;28;20049;-60
2021/08/11 07:52:56;;;;;;;5.45;1.58;;;;;;;;;;4998870;28;20038;-61
2021/08/11 07:55:22;;;;;;;5.10;1.63;;;;;;;;;;4999060;28;20030;-60
2021/08/11 07:57:48;;;;;;;4.75;1.77;;;;;;;;;;5003074;28;20029;-60
2021/08/11 08:00:16;;;;;;;3.97;1.58;;;;;;;;;;4997157;28;20437;-60
2021/08/11 08:02:42;;;;;;;3.92;2.20;;;;;;;;;;4991431;28;20100;-60
2021/08/11 08:05:08;;;;;;;2.85;1.63;;;;;;;;;;4992554;28;20390;-61
2021/08/11 08:07:34;;;;;;;4.15;1.73;;;;;;;;;;5002238;28;20040;-61
2021/08/11 08:10:00;;;;;;;5.43;1.65;;;;;;;;;;4997967;28;20510;-61
2021/08/11 08:12:26;;;;;;;3.78;1.60;;;;;;;;;;4998335;28;20587;-61
2021/08/11 08:14:51;;;;;;;4.72;2.05;;;;;;;;;;4995012;28;20072;-60
2021/08/11 08:17:17;;;;;;;4.90;2.10;;;;;;;;;;4999749;28;20279;-60
2021/08/11 08:19:42;;;;;;;6.20;2.15;;;;;;;;;;4997686;28;20169;-60
2021/08/11 08:22:08;;;;;;;3.80;1.80;;;;;;;;;;4998154;28;20041;-60
2021/08/11 08:24:33;;;;;;;5.15;1.60;;;;;;;;;;4997969;28;20038;-61
2021/08/11 08:27:00;;;;;;;3.55;1.90;;;;;;;;;;5000249;28;20018;-61
2021/08/11 08:29:26;;;;;;;8.18;2.70;;;;;;;;;;4994680;28;20064;-61
2021/08/11 08:31:51;;;;;;;8.25;2.05;;;;;;;;;;5003758;28;20054;-62
2021/08/11 08:34:17;;;;;;;4.88;2.10;;;;;;;;;;5002599;28;20050;-61
2021/08/11 08:36:42;;;;;;;9.45;2.45;;;;;;;;;;5004491;28;20042;-62
2021/08/11 08:39:08;;;;;;;6.38;3.15;;;;;;;;;;5002550;28;20125;-61
2021/08/11 08:41:39;;;;;;;6.25;2.95;;;;;;;;;;4998749;28;20041;-61
2021/08/11 08:44:06;;;;;;;6.63;2.72;;;;;;;;;;4998355;28;20041;-61
2021/08/11 08:46:33;;;;;;;7.40;3.00;;;;;;;;;;4993406;28;20153;-61
2021/08/11 08:48:58;;;;;;;6.68;2.63;;;;;;;;;;4995698;28;20508;-61
2021/08/11 08:51:26;;;;;;;6.65;2.90;;;;;;;;;;4998007;28;20397;-61
2021/08/11 08:53:51;;;;;;;9.95;3.60;;;;;;;;;;4998496;28;20471;-61
2021/08/11 08:56:17;;;;;;;8.68;3.42;;;;;;;;;;4992575;28;20041;-61
2021/08/11 08:58:43;;;;;;;6.55;2.88;;;;;;;;;;4997140;28;20109;-61
2021/08/11 09:01:09;;;;;;;12.05;3.88;;;;;;;;;;4995898;28;20480;-61
2021/08/11 09:03:35;;;;;;;8.75;3.72;;;;;;;;;;4994097;28;20477;-61
2021/08/11 09:06:01;;;;;;;8.38;3.60;;;;;;;;;;4992120;28;20087;-61
2021/08/11 09:08:27;;;;;;;12.27;3.70;;;;;;;;;;4994070;28;20087;-61
2021/08/11 09:10:53;;;;;;;9.70;3.50;;;;;;;;;;4992141;28;20037;-61
2021/08/11 09:13:20;;;;;;;8.05;3.75;;;;;;;;;;4991789;28;20038;-62
2021/08/11 09:15:53;;;;;;;9.63;3.83;;;;;;;;;;4995073;28;20026;-61
2021/08/11 09:18:24;;;;;;;12.23;4.72;;;;;;;;;;4991730;28;20064;-61
2021/08/11 09:20:58;;;;;;;9.23;4.15;;;;;;;;;;4994967;28;20041;-61
2021/08/11 09:23:42;;;;;;;12.00;5.05;;;;;;;;;;5000159;28;20033;-61
2021/08/11 09:26:12;;;;;;;11.05;4.32;;;;;;;;;;4995298;28;20042;-61
2021/08/11 09:28:43;;;;;;;12.88;3.80;;;;;;;;;;4994487;28;20089;-61
2021/08/11 09:31:25;;;;;;;10.60;3.80;;;;;;;;;;4995050;28;20382;-61
2021/08/11 09:33:53;;;;;;;9.95;3.70;;;;;;;;;;4991771;28;20121;-61
2021/08/11 09:36:19;;;;;;;11.30;3.95;;;;;;;;;;4993638;28;20030;-61
2021/08/11 09:39:03;;;;;;;8.98;3.70;;;;;;;;;;4995207;28;20545;-61
2021/08/11 09:41:31;;;;;;;8.48;3.50;;;;;;;;;;4993612;28;20058;-61
2021/08/11 09:44:08;;;;;;;21.50;4.45;;;;;;;;;;4996506;28;20065;-61
2021/08/11 09:46:34;;;;;;;16.55;4.32;;;;;;;;;;4992145;28;20032;-61
2021/08/11 09:49:00;;;;;;;11.05;3.70;;;;;;;;;;4994150;28;20067;-61
2021/08/11 09:51:26;;;;;;;10.80;4.15;;;;;;;;;;4995795;28;20142;-61
2021/08/11 09:53:52;;;;;;;16.15;3.90;;;;;;;;;;4993987;28;20118;-61
2021/08/11 09:56:17;;;;;;;14.60;3.67;;;;;;;;;;4994840;28;20063;-62
2021/08/11 09:58:45;;;;;;;9.27;3.67;;;;;;;;;;5000693;28;20037;-61
2021/08/11 10:01:16;;;;;;;8.75;3.13;;;;;;;;;;4995327;28;20026;-61
2021/08/11 10:04:01;;;;;;;8.05;3.10;;;;;;;;;;4995758;28;20038;-62
2021/08/11 10:06:32;;;;;;;6.20;2.65;;;;;;;;;;4994294;28;20385;-62
2021/08/11 10:09:17;;;;;;;5.30;2.20;;;;;;;;;;4993883;28;20189;-62
2021/08/11 10:11:47;;;;;;;3.95;1.65;;;;;;;;;;4994028;28;20102;-62
2021/08/11 10:14:14;;;;;;;9.18;1.80;;;;;;;;;;4990985;28;20034;-62
2021/08/11 10:16:40;;;;;;;4.80;1.60;;;;;;;;;;4996028;28;20347;-62
2021/08/11 10:19:07;;;;;;;5.78;1.58;;;;;;;;;;4990243;28;20050;-62
2021/08/11 10:21:51;;;;;;;5.97;1.77;;;;;;;;;;4999289;28;20038;-62
2021/08/11 10:24:17;;;;;;;6.72;1.55;;;;;;;;;;4998623;28;20097;-62
2021/08/11 10:26:47;;;;;;;4.90;1.30;;;;;;;;;;5000870;28;20579;-62
2021/08/11 10:29:13;;;;;;;4.82;1.50;;;;;;;;;;5003887;28;20033;-61
2021/08/11 10:31:38;;;;;;;5.78;1.60;;;;;;;;;;4994336;28;20483;-62
2021/08/11 10:34:04;;;;;;;3.15;1.70;;;;;;;;;;5001931;28;20038;-62
2021/08/11 10:36:31;;;;;;;3.88;1.48;;;;;;;;;;5001467;28;20046;-62
2021/08/11 10:39:01;;;;;;;3.33;1.58;;;;;;;;;;5000321;28;20034;-62
2021/08/11 10:41:31;;;;;;;6.03;1.70;;;;;;;;;;5000022;28;20369;-61
2021/08/11 10:43:58;;;;;;;8.15;1.90;;;;;;;;;;5004030;28;20036;-61
2021/08/11 10:46:36;;;;;;;8.63;1.90;;;;;;;;;;4994483;28;20064;-62
2021/08/11 10:49:06;;;;;;;4.13;2.10;;;;;;;;;;4999253;28;20027;-61
2021/08/11 10:51:42;;;;;;;4.57;2.47;;;;;;;;;;4997496;28;20491;-62
2021/08/11 10:54:09;;;;;;;7.55;2.15;;;;;;;;;;5004216;28;20771;-61
2021/08/11 10:56:50;;;;;;;9.45;2.45;;;;;;;;;;5004097;28;20420;-61
2021/08/11 10:59:21;;;;;;;7.38;3.40;;;;;;;;;;4997340;28;20027;-62
2021/08/11 11:01:48;;;;;;;5.45;2.40;;;;;;;;;;4992353;28;20038;-61
2021/08/11 11:04:40;;;;;;;3.88;1.40;;;;;;;;;;4997748;28;20564;-62
2021/08/11 11:07:16;;;;;;;4.28;0.47;;;;;;;;;;5000842;28;20477;-62
2021/08/11 11:09:44;;;;;;;6.03;1.02;;;;;;;;;;4999121;28;20029;-62
2021/08/11 11:12:19;;;;;;;2.92;0.80;;;;;;;;;;4994518;28;20378;-62
2021/08/11 11:15:00;;;;;;;3.17;1.73;;;;;;;;;;4997914;28;20413;-62
2021/08/11 11:17:31;;;;;;;6.25;0.68;;;;;;;;;;4997859;28;20026;-61
2021/08/11 11:20:03;;;;;;;4.32;0.70;;;;;;;;;;4998666;28;20037;-62
2021/08/11 11:22:39;;;;;;;6.05;0.63;;;;;;;;;;4995836;28;20064;-61
2021/08/11 11:25:09;;;;;;;3.17;0.75;;;;;;;;;;4998149;28;20058;-62
2021/08/11 11:27:43;;;;;;;3.20;0.82;;;;;;;;;;4999318;28;20253;-62
2021/08/11 11:30:33;;;;;;;4.03;1.13;;;;;;;;;;4999831;28;20026;-61
2021/08/11 11:33:31;;;;;;;1.17;0.70;;;;;;;;;;4995973;28;20419;-62
2021/08/11 11:36:23;;;;;;;1.13;0.70;;;;;;;;;;4991312;28;20125;-62
2021/08/11 11:39:06;;;;;;;4.15;1.38;;;;;;;;;;4999509;28;20161;-62
2021/08/11 11:41:33;;;;;;;5.88;2.10;;;;;;;;;;4999228;28;20045;-62
2021/08/11 11:44:43;;;;;;;2.45;0.70;;;;;;;;;;4993669;28;20581;-62
2021/08/11 11:47:09;;;;;;;5.10;0.85;;;;;;;;;;4998359;28;20429;-62
2021/08/11 11:49:36;;;;;;;2.55;0.43;;;;;;;;;;5000558;28;20496;-62
2021/08/11 11:52:03;;;;;;;1.15;0.55;;;;;;;;;;5001298;28;20034;-62
2021/08/11 11:54:30;;;;;;;7.88;0.70;;;;;;;;;;4998780;28;20041;-62
2021/08/11 11:56:57;;;;;;;2.33;0.60;;;;;;;;;;4998129;28;20033;-63
2021/08/11 11:59:23;;;;;;;3.08;0.98;;;;;;;;;;4996430;28;20064;-63
2021/08/11 12:01:50;;;;;;;1.52;1.30;;;;;;;;;;4999257;28;20057;-63
2021/08/11 12:04:22;;;;;;;1.40;0.90;;;;;;;;;;4997439;28;20030;-63
2021/08/11 12:06:47;;;;;;;2.47;0.85;;;;;;;;;;4996122;28;20386;-62
2021/08/11 12:09:13;;;;;;;1.10;0.90;;;;;;;;;;5000093;28;20061;-63
2021/08/11 12:11:38;;;;;;;1.58;0.70;;;;;;;;;;5000540;28;20543;-62
2021/08/11 12:14:05;;;;;;;2.70;1.75;;;;;;;;;;4994534;28;20065;-62
2021/08/11 12:16:39;;;;;;;3.17;0.90;;;;;;;;;;4996971;28;20374;-62
2021/08/11 12:19:16;;;;;;;3.80;1.25;;;;;;;;;;4998534;28;20053;-62
2021/08/11 12:21:43;;;;;;;1.35;0.77;;;;;;;;;;4998681;28;20030;-62
2021/08/11 12:24:09;;;;;;;3.58;1.40;;;;;;;;;;4998524;28;20092;-64
2021/08/11 12:26:35;;;;;;;10.43;1.67;;;;;;;;;;4993523;28;20489;-63
2021/08/11 12:29:00;;;;;;;4.32;1.15;;;;;;;;;;5000855;28;20041;-63
2021/08/11 12:31:32;;;;;;;4.22;1.40;;;;;;;;;;5001072;28;20018;-63
2021/08/11 12:33:58;;;;;;;8.70;1.27;;;;;;;;;;4998704;28;20048;-63
2021/08/11 12:36:31;;;;;;;4.15;1.65;;;;;;;;;;4997978;28;20050;-63
2021/08/11 12:39:15;;;;;;;6.25;1.02;;;;;;;;;;4997683;28;20026;-63
2021/08/11 12:41:43;;;;;;;1.30;0.70;;;;;;;;;;4990466;28;20308;-64
2021/08/11 12:44:21;;;;;;;5.97;1.10;;;;;;;;;;5000822;28;20121;-63
2021/08/11 12:46:57;;;;;;;5.55;1.05;;;;;;;;;;4994557;28;20112;-62
2021/08/11 12:49:30;;;;;;;4.38;1.40;;;;;;;;;;4991455;28;20481;-63
2021/08/11 12:52:05;;;;;;;5.35;1.60;;;;;;;;;;5001151;28;20037;-62
2021/08/11 12:55:08;;;;;;;2.95;1.40;;;;;;;;;;4997103;28;20083;-62
2021/08/11 12:57:40;;;;;;;3.15;1.30;;;;;;;;;;4994623;28;20381;-62
2021/08/11 13:00:10;;;;;;;6.03;1.50;;;;;;;;;;4994761;28;20146;-62
2021/08/11 13:02:36;;;;;;;5.03;1.80;;;;;;;;;;4994769;28;20049;-62
2021/08/11 13:05:13;;;;;;;6.55;1.88;;;;;;;;;;4998622;28;20033;-62
2021/08/11 13:07:59;;;;;;;7.40;1.75;;;;;;;;;;4989217;28;20385;-62
2021/08/11 13:10:25;;;;;;;30.05;2.92;;;;;;;;;;5001293;28;20093;-62
2021/08/11 13:12:52;;;;;;;14.88;2.42;;;;;;;;;;4989492;28;20441;-62
2021/08/11 13:15:25;;;;;;;6.35;2.05;;;;;;;;;;5003502;28;20060;-62
2021/08/11 13:17:52;;;;;;;11.20;2.33;;;;;;;;;;5004893;28;20038;-62
2021/08/11 13:20:20;;;;;;;14.73;2.13;;;;;;;;;;5001311;28;20046;-62
2021/08/11 13:22:53;;;;;;;8.68;2.25;;;;;;;;;;4998702;28;20579;-62
2021/08/11 13:25:19;;;;;;;11.05;2.45;;;;;;;;;;4998991;28;20109;-62
2021/08/11 13:27:48;;;;;;;14.07;3.03;;;;;;;;;;4995125;28;20049;-62
2021/08/11 13:30:14;;;;;;;8.43;2.65;;;;;;;;;;4995668;28;20397;-63
2021/08/11 13:32:40;;;;;;;13.57;2.63;;;;;;;;;;4991742;28;20046;-62
2021/08/11 13:35:07;;;;;;;15.00;3.22;;;;;;;;;;4999190;28;20026;-63
2021/08/11 13:37:33;;;;;;;12.48;2.60;;;;;;;;;;5000778;28;20029;-62
2021/08/11 13:39:59;;;;;;;14.13;2.75;;;;;;;;;;4998149;28;20144;-62
2021/08/11 13:42:25;;;;;;;10.30;2.45;;;;;;;;;;5001298;28;20060;-62
2021/08/11 13:44:51;;;;;;;16.65;2.53;;;;;;;;;;4997051;28;20473;-62
2021/08/11 13:47:18;;;;;;;8.73;2.17;;;;;;;;;;4994954;28;20034;-61
2021/08/11 13:49:45;;;;;;;12.73;2.80;;;;;;;;;;4992462;28;20049;-62
2021/08/11 13:52:11;;;;;;;16.17;3.78;;;;;;;;;;4994828;28;20030;-61
2021/08/11 13:54:36;;;;;;;14.52;3.08;;;;;;;;;;4994192;28;20058;-61
2021/08/11 13:57:02;;;;;;;17.73;3.03;;;;;;;;;;4995528;28;20096;-61
2021/08/11 13:59:28;;;;;;;28.13;4.38;;;;;;;;;;5002435;28;20501;-62
2021/08/11 14:01:53;;;;;;;16.55;2.90;;;;;;;;;;4995189;28;20043;-62
2021/08/11 14:04:19;;;;;;;15.43;2.90;;;;;;;;;;4997734;28;20093;-61
2021/08/11 14:06:44;;;;;;;17.23;3.28;;;;;;;;;;4998912;28;20054;-61
2021/08/11 14:09:10;;;;;;;14.07;2.28;;;;;;;;;;5000044;28;20553;-61
2021/08/11 14:11:35;;;;;;;20.67;3.53;;;;;;;;;;4999041;28;20033;-61
2021/08/11 14:14:01;;;;;;;15.00;3.42;;;;;;;;;;5006212;28;20052;-61
2021/08/11 14:16:26;;;;;;;16.67;3.38;;;;;;;;;;5001404;28;20040;-61
2021/08/11 14:18:52;;;;;;;13.52;3.35;;;;;;;;;;4999218;28;20056;-61
2021/08/11 14:21:18;;;;;;;22.38;5.38;;;;;;;;;;5002569;28;20515;-61
2021/08/11 14:23:44;;;;;;;22.52;4.88;;;;;;;;;;5005782;28;20461;-62
2021/08/11 14:26:10;;;;;;;13.45;2.75;;;;;;;;;;5004593;28;20034;-62
2021/08/11 14:28:35;;;;;;;18.73;3.63;;;;;;;;;;4999227;28;20029;-62
2021/08/11 14:31:01;;;;;;;18.30;3.30;;;;;;;;;;5008267;28;20072;-62
2021/08/11 14:33:27;;;;;;;18.52;4.00;;;;;;;;;;5006307;28;20030;-62
2021/08/11 14:35:53;;;;;;;12.63;2.97;;;;;;;;;;4997888;28;20092;-62
2021/08/11 14:38:18;;;;;;;22.48;3.88;;;;;;;;;;4997870;28;20030;-62
2021/08/11 14:40:44;;;;;;;15.77;3.13;;;;;;;;;;5007359;28;20464;-61
2021/08/11 14:43:09;;;;;;;11.45;2.60;;;;;;;;;;5000863;28;20084;-62
2021/08/11 14:45:35;;;;;;;13.60;3.10;;;;;;;;;;5003048;28;20030;-62